Terminal Aerodrome Forecast
Issued by NWS

Home | Current Version | Previous Version | Text Only | Print | Product List | Glossary On
Versions: 1 2 3 4 5 6 7 8 9 10 11 12 13 14 15
284
FTUS44 KMAF 251720
TAFINK
TAF
KINK 251720Z 2518/2618 12014G20KT P6SM SCT050
     FM260300 12010KT P6SM BKN060 PROB30 2608/2612 6SM TSRA BKN030CB
      AMD NOT SKED=

USA.gov is the U.S. government's official web portal to all federal, state and local government web resources and services.